Terminal Aerodrome Forecast
Issued by NWS

Home | Current Version | Previous Version | Text Only | Print | Product List | Glossary Off
Versions: 1 2 3 4 5 6 7 8 9 10 11 12 13 14 15 16 17 18

000
FTUS43 KMPX 010500
TAFRWF
TAF
KRWF 010520Z 0106/0206 VRB03KT P6SM SCT007 BKN100
      TEMPO 0106/0109 BKN007
     FM010900 30005KT 4SM BR SCT004 BKN006
     FM011300 31010KT P6SM SCT050
     FM012300 28007KT P6SM BKN100=

USA.gov is the U.S. government's official web portal to all federal, state and local government web resources and services.